sensor_id;sensor_type;location;lat;lon;timestamp;pressure;altitude;pressure_sealevel;temperature
61595;BMP280;47397;48.194;11.632;2023-06-19T00:00:27;95633.50;;;17.32
61595;BMP280;47397;48.194;11.632;2023-06-19T00:01:27;95636.66;;;17.37
61595;BMP280;47397;48.194;11.632;2023-06-19T00:02:28;95642.13;;;17.31
61595;BMP280;47397;48.194;11.632;2023-06-19T00:03:28;95644.69;;;17.31
61595;BMP280;47397;48.194;11.632;2023-06-19T00:04:29;95646.59;;;17.27
61595;BMP280;47397;48.194;11.632;2023-06-19T00:05:29;95652.41;;;17.31
61595;BMP280;47397;48.194;11.632;2023-06-19T00:06:29;95643.53;;;17.36
61595;BMP280;47397;48.194;11.632;2023-06-19T00:07:30;95643.53;;;17.36
61595;BMP280;47397;48.194;11.632;2023-06-19T00:08:30;95647.50;;;17.42
61595;BMP280;47397;48.194;11.632;2023-06-19T00:09:31;95637.88;;;17.45
61595;BMP280;47397;48.194;11.632;2023-06-19T00:10:32;95644.84;;;17.59
61595;BMP280;47397;48.194;11.632;2023-06-19T00:11:32;95643.09;;;17.60
61595;BMP280;47397;48.194;11.632;2023-06-19T00:12:34;95640.78;;;17.55
61595;BMP280;47397;48.194;11.632;2023-06-19T00:13:34;95642.19;;;17.61
61595;BMP280;47397;48.194;11.632;2023-06-19T00:14:35;95637.88;;;17.61
61595;BMP280;47397;48.194;11.632;2023-06-19T00:15:35;95638.31;;;17.54
61595;BMP280;47397;48.194;11.632;2023-06-19T00:16:36;95637.22;;;17.58
61595;BMP280;47397;48.194;11.632;2023-06-19T00:17:36;95635.38;;;17.60
61595;BMP280;47397;48.194;11.632;2023-06-19T00:18:37;95638.66;;;17.47
61595;BMP280;47397;48.194;11.632;2023-06-19T00:19:37;95636.47;;;17.56
61595;BMP280;47397;48.194;11.632;2023-06-19T00:20:37;95633.66;;;17.60
61595;BMP280;47397;48.194;11.632;2023-06-19T00:21:38;95634.16;;;17.51
61595;BMP280;47397;48.194;11.632;2023-06-19T00:22:41;95634.56;;;17.59
61595;BMP280;47397;48.194;11.632;2023-06-19T00:23:42;95636.31;;;17.59
61595;BMP280;47397;48.194;11.632;2023-06-19T00:24:42;95633.00;;;17.57
61595;BMP280;47397;48.194;11.632;2023-06-19T00:25:43;95640.13;;;17.67
61595;BMP280;47397;48.194;11.632;2023-06-19T00:26:43;95636.31;;;17.59
61595;BMP280;47397;48.194;11.632;2023-06-19T00:27:46;95630.81;;;17.65
61595;BMP280;47397;48.194;11.632;2023-06-19T00:28:46;95637.63;;;17.66
61595;BMP280;47397;48.194;11.632;2023-06-19T00:29:47;95639.78;;;17.58
61595;BMP280;47397;48.194;11.632;2023-06-19T00:30:47;95638.78;;;17.60
61595;BMP280;47397;48.194;11.632;2023-06-19T00:31:48;95631.16;;;17.59
61595;BMP280;47397;48.194;11.632;2023-06-19T00:32:48;95630.16;;;17.61
61595;BMP280;47397;48.194;11.632;2023-06-19T00:33:49;95640.34;;;17.63
61595;BMP280;47397;48.194;11.632;2023-06-19T00:34:49;95635.13;;;17.64
61595;BMP280;47397;48.194;11.632;2023-06-19T00:35:50;95638.97;;;17.57
61595;BMP280;47397;48.194;11.632;2023-06-19T00:36:50;95636.00;;;17.49
61595;BMP280;47397;48.194;11.632;2023-06-19T00:37:51;95631.66;;;17.65
61595;BMP280;47397;48.194;11.632;2023-06-19T00:38:52;95632.75;;;17.61
61595;BMP280;47397;48.194;11.632;2023-06-19T00:39:52;95628.16;;;17.66
61595;BMP280;47397;48.194;11.632;2023-06-19T00:40:52;95630.00;;;17.64
61595;BMP280;47397;48.194;11.632;2023-06-19T00:41:53;95630.50;;;17.55
61595;BMP280;47397;48.194;11.632;2023-06-19T00:42:55;95634.66;;;17.58
61595;BMP280;47397;48.194;11.632;2023-06-19T00:43:56;95632.41;;;17.52
61595;BMP280;47397;48.194;11.632;2023-06-19T00:44:57;95638.88;;;17.59
61595;BMP280;47397;48.194;11.632;2023-06-19T00:45:57;95633.38;;;17.65
61595;BMP280;47397;48.194;11.632;2023-06-19T00:47:00;95634.81;;;17.70
61595;BMP280;47397;48.194;11.632;2023-06-19T00:48:01;95634.47;;;17.76
61595;BMP280;47397;48.194;11.632;2023-06-19T00:49:02;95637.47;;;17.69
61595;BMP280;47397;48.194;11.632;2023-06-19T00:50:02;95635.38;;;17.60
61595;BMP280;47397;48.194;11.632;2023-06-19T00:51:05;95634.72;;;17.72
61595;BMP280;47397;48.194;11.632;2023-06-19T00:52:07;95638.13;;;17.72
61595;BMP280;47397;48.194;11.632;2023-06-19T00:53:08;95636.03;;;17.79
61595;BMP280;47397;48.194;11.632;2023-06-19T00:54:08;95638.88;;;17.74
61595;BMP280;47397;48.194;11.632;2023-06-19T00:55:09;95641.78;;;17.84
61595;BMP280;47397;48.194;11.632;2023-06-19T00:56:09;95639.03;;;17.71
61595;BMP280;47397;48.194;11.632;2023-06-19T00:57:10;95642.44;;;17.72
61595;BMP280;47397;48.194;11.632;2023-06-19T00:58:12;95640.59;;;17.74
61595;BMP280;47397;48.194;11.632;2023-06-19T00:59:15;95644.66;;;17.78
61595;BMP280;47397;48.194;11.632;2023-06-19T01:01:54;95642.63;;;17.69
61595;BMP280;47397;48.194;11.632;2023-06-19T01:02:54;95647.06;;;17.65
61595;BMP280;47397;48.194;11.632;2023-06-19T01:03:55;95646.50;;;17.76
61595;BMP280;47397;48.194;11.632;2023-06-19T01:04:56;95652.38;;;17.78
61595;BMP280;47397;48.194;11.632;2023-06-19T01:05:58;95646.91;;;17.84
61595;BMP280;47397;48.194;11.632;2023-06-19T01:07:05;95645.47;;;17.94
61595;BMP280;47397;48.194;11.632;2023-06-19T01:08:10;95651.63;;;17.92
61595;BMP280;47397;48.194;11.632;2023-06-19T01:09:14;95653.00;;;17.97
61595;BMP280;47397;48.194;11.632;2023-06-19T01:10:18;95647.44;;;18.05
61595;BMP280;47397;48.194;11.632;2023-06-19T01:11:21;95646.97;;;18.12
61595;BMP280;47397;48.194;11.632;2023-06-19T01:12:27;95651.75;;;18.04
61595;BMP280;47397;48.194;11.632;2023-06-19T01:13:36;95650.56;;;18.10
61595;BMP280;47397;48.194;11.632;2023-06-19T01:14:43;95650.38;;;18.13
61595;BMP280;47397;48.194;11.632;2023-06-19T01:15:46;95658.94;;;18.13
61595;BMP280;47397;48.194;11.632;2023-06-19T01:16:48;95653.59;;;18.17
61595;BMP280;47397;48.194;11.632;2023-06-19T01:17:49;95649.63;;;18.11
61595;BMP280;47397;48.194;11.632;2023-06-19T01:18:50;95660.72;;;17.97
61595;BMP280;47397;48.194;11.632;2023-06-19T01:19:51;95663.94;;;18.01
61595;BMP280;47397;48.194;11.632;2023-06-19T01:20:51;95655.78;;;18.08
61595;BMP280;47397;48.194;11.632;2023-06-19T01:21:52;95655.78;;;18.08
61595;BMP280;47397;48.194;11.632;2023-06-19T01:22:54;95651.28;;;18.12
61595;BMP280;47397;48.194;11.632;2023-06-19T01:23:54;95653.44;;;17.90
61595;BMP280;47397;48.194;11.632;2023-06-19T01:24:54;95650.81;;;18.05
61595;BMP280;47397;48.194;11.632;2023-06-19T01:25:55;95644.94;;;18.03
61595;BMP280;47397;48.194;11.632;2023-06-19T01:26:55;95658.16;;;17.97
61595;BMP280;47397;48.194;11.632;2023-06-19T01:27:56;95655.59;;;17.97
61595;BMP280;47397;48.194;11.632;2023-06-19T01:28:56;95651.00;;;18.02
61595;BMP280;47397;48.194;11.632;2023-06-19T01:29:57;95654.34;;;18.19
61595;BMP280;47397;48.194;11.632;2023-06-19T01:31:00;95652.28;;;18.25
61595;BMP280;47397;48.194;11.632;2023-06-19T01:32:04;95657.16;;;18.30
61595;BMP280;47397;48.194;11.632;2023-06-19T01:33:12;95661.38;;;18.31
61595;BMP280;47397;48.194;11.632;2023-06-19T01:34:17;95657.88;;;18.32
61595;BMP280;47397;48.194;11.632;2023-06-19T01:35:19;95659.16;;;18.25
61595;BMP280;47397;48.194;11.632;2023-06-19T01:36:23;95658.31;;;18.24
61595;BMP280;47397;48.194;11.632;2023-06-19T01:37:25;95660.91;;;18.24
61595;BMP280;47397;48.194;11.632;2023-06-19T01:38:28;95660.31;;;18.19
61595;BMP280;47397;48.194;11.632;2023-06-19T01:39:29;95666.38;;;18.18
61595;BMP280;47397;48.194;11.632;2023-06-19T01:40:30;95663.06;;;18.16
61595;BMP280;47397;48.194;11.632;2023-06-19T01:41:32;95665.78;;;18.29
61595;BMP280;47397;48.194;11.632;2023-06-19T01:42:33;95662.88;;;18.19
61595;BMP280;47397;48.194;11.632;2023-06-19T01:43:35;95657.41;;;18.25
61595;BMP280;47397;48.194;11.632;2023-06-19T01:44:35;95659.72;;;18.30
61595;BMP280;47397;48.194;11.632;2023-06-19T01:45:36;95658.00;;;18.15
61595;BMP280;47397;48.194;11.632;2023-06-19T01:46:37;95662.66;;;18.24
61595;BMP280;47397;48.194;11.632;2023-06-19T01:47:37;95661.13;;;18.20
61595;BMP280;47397;48.194;11.632;2023-06-19T01:48:38;95659.34;;;18.22
61595;BMP280;47397;48.194;11.632;2023-06-19T01:49:39;95657.66;;;18.21
61595;BMP280;47397;48.194;11.632;2023-06-19T01:50:39;95658.09;;;18.13
61595;BMP280;47397;48.194;11.632;2023-06-19T01:51:40;95660.84;;;18.10
61595;BMP280;47397;48.194;11.632;2023-06-19T01:52:41;95651.22;;;18.13
61595;BMP280;47397;48.194;11.632;2023-06-19T01:53:42;95653.59;;;18.17
61595;BMP280;47397;48.194;11.632;2023-06-19T01:54:43;95658.06;;;17.99
61595;BMP280;47397;48.194;11.632;2023-06-19T01:55:43;95657.97;;;18.00
61595;BMP280;47397;48.194;11.632;2023-06-19T01:56:44;95660.28;;;18.05
61595;BMP280;47397;48.194;11.632;2023-06-19T01:57:44;95654.59;;;18.14
61595;BMP280;47397;48.194;11.632;2023-06-19T01:58:45;95647.81;;;18.13
61595;BMP280;47397;48.194;11.632;2023-06-19T01:59:45;95642.31;;;18.19
61595;BMP280;47397;48.194;11.632;2023-06-19T02:00:45;95647.13;;;18.25
61595;BMP280;47397;48.194;11.632;2023-06-19T02:01:46;95650.69;;;18.23
61595;BMP280;47397;48.194;11.632;2023-06-19T02:02:46;95644.16;;;18.17
61595;BMP280;47397;48.194;11.632;2023-06-19T02:03:47;95652.22;;;18.11
61595;BMP280;47397;48.194;11.632;2023-06-19T02:04:47;95649.63;;;18.11
61595;BMP280;47397;48.194;11.632;2023-06-19T02:05:48;95640.72;;;18.02
61595;BMP280;47397;48.194;11.632;2023-06-19T02:06:48;95644.50;;;18.11
61595;BMP280;47397;48.194;11.632;2023-06-19T02:07:49;95650.56;;;18.10
61595;BMP280;47397;48.194;11.632;2023-06-19T02:08:50;95643.84;;;18.07
61595;BMP280;47397;48.194;11.632;2023-06-19T02:09:51;95643.50;;;18.13
61595;BMP280;47397;48.194;11.632;2023-06-19T02:10:51;95643.50;;;18.13
61595;BMP280;47397;48.194;11.632;2023-06-19T02:11:51;95642.31;;;18.19
61595;BMP280;47397;48.194;11.632;2023-06-19T02:12:52;95642.31;;;18.19
61595;BMP280;47397;48.194;11.632;2023-06-19T02:13:52;95645.56;;;18.23
61595;BMP280;47397;48.194;11.632;2023-06-19T02:14:53;95647.97;;;17.96
61595;BMP280;47397;48.194;11.632;2023-06-19T02:15:53;95641.19;;;18.09
61595;BMP280;47397;48.194;11.632;2023-06-19T02:16:53;95640.91;;;17.99
61595;BMP280;47397;48.194;11.632;2023-06-19T02:17:55;95642.75;;;18.11
61595;BMP280;47397;48.194;11.632;2023-06-19T02:18:55;95644.59;;;18.09
61595;BMP280;47397;48.194;11.632;2023-06-19T02:19:56;95645.50;;;18.08
61595;BMP280;47397;48.194;11.632;2023-06-19T02:20:56;95641.28;;;18.07
61595;BMP280;47397;48.194;11.632;2023-06-19T02:21:57;95648.06;;;18.08
61595;BMP280;47397;48.194;11.632;2023-06-19T02:22:57;95651.34;;;17.96
61595;BMP280;47397;48.194;11.632;2023-06-19T02:23:59;95646.41;;;18.07
61595;BMP280;47397;48.194;11.632;2023-06-19T02:24:59;95648.00;;;18.10
61595;BMP280;47397;48.194;11.632;2023-06-19T02:26:00;95644.50;;;18.11
61595;BMP280;47397;48.194;11.632;2023-06-19T02:27:00;95646.81;;;18.16
61595;BMP280;47397;48.194;11.632;2023-06-19T02:28:00;95641.75;;;18.14
61595;BMP280;47397;48.194;11.632;2023-06-19T02:29:01;95646.69;;;18.03
61595;BMP280;47397;48.194;11.632;2023-06-19T02:30:01;95651.72;;;17.90
61595;BMP280;47397;48.194;11.632;2023-06-19T02:31:02;95644.25;;;17.86
61595;BMP280;47397;48.194;11.632;2023-06-19T02:32:02;95643.81;;;17.93
61595;BMP280;47397;48.194;11.632;2023-06-19T02:33:03;95652.34;;;17.94
61595;BMP280;47397;48.194;11.632;2023-06-19T02:34:03;95647.50;;;18.03
61595;BMP280;47397;48.194;11.632;2023-06-19T02:35:07;95650.09;;;18.03
61595;BMP280;47397;48.194;11.632;2023-06-19T02:36:08;95647.69;;;18.00
61595;BMP280;47397;48.194;11.632;2023-06-19T02:37:08;95648.69;;;17.98
61595;BMP280;47397;48.194;11.632;2023-06-19T02:38:08;95643.84;;;18.07
61595;BMP280;47397;48.194;11.632;2023-06-19T02:39:10;95646.41;;;18.07
61595;BMP280;47397;48.194;11.632;2023-06-19T02:40:11;95651.69;;;18.20
61595;BMP280;47397;48.194;11.632;2023-06-19T02:41:12;95656.09;;;18.18
61595;BMP280;47397;48.194;11.632;2023-06-19T02:42:13;95643.66;;;18.10
61595;BMP280;47397;48.194;11.632;2023-06-19T02:43:13;95652.94;;;18.13
61595;BMP280;47397;48.194;11.632;2023-06-19T02:44:13;95649.81;;;18.08
61595;BMP280;47397;48.194;11.632;2023-06-19T02:45:14;95660.63;;;17.99
61595;BMP280;47397;48.194;11.632;2023-06-19T02:46:14;95655.66;;;17.96
61595;BMP280;47397;48.194;11.632;2023-06-19T02:47:15;95648.44;;;18.02
61595;BMP280;47397;48.194;11.632;2023-06-19T02:48:15;95655.88;;;18.07
61595;BMP280;47397;48.194;11.632;2023-06-19T02:49:15;95652.22;;;18.11
61595;BMP280;47397;48.194;11.632;2023-06-19T02:50:16;95653.78;;;18.13
61595;BMP280;47397;48.194;11.632;2023-06-19T02:51:16;95651.78;;;18.19
61595;BMP280;47397;48.194;11.632;2023-06-19T02:52:17;95649.47;;;18.14
61595;BMP280;47397;48.194;11.632;2023-06-19T02:53:17;95658.63;;;18.04
61595;BMP280;47397;48.194;11.632;2023-06-19T02:54:19;95660.25;;;17.91
61595;BMP280;47397;48.194;11.632;2023-06-19T02:55:19;95654.94;;;17.94
61595;BMP280;47397;48.194;11.632;2023-06-19T02:56:20;95661.13;;;18.05
61595;BMP280;47397;48.194;11.632;2023-06-19T02:57:20;95651.56;;;18.07
61595;BMP280;47397;48.194;11.632;2023-06-19T02:58:21;95656.34;;;18.13
61595;BMP280;47397;48.194;11.632;2023-06-19T02:59:21;95648.16;;;18.07
61595;BMP280;47397;48.194;11.632;2023-06-19T03:00:22;95651.44;;;17.95
61595;BMP280;47397;48.194;11.632;2023-06-19T03:01:22;95652.53;;;17.91
61595;BMP280;47397;48.194;11.632;2023-06-19T03:02:23;95657.94;;;17.86
61595;BMP280;47397;48.194;11.632;2023-06-19T03:03:23;95650.78;;;17.91
61595;BMP280;47397;48.194;11.632;2023-06-19T03:04:23;95650.72;;;17.93
61595;BMP280;47397;48.194;11.632;2023-06-19T03:05:24;95654.09;;;17.93
61595;BMP280;47397;48.194;11.632;2023-06-19T03:06:24;95647.50;;;18.03
61595;BMP280;47397;48.194;11.632;2023-06-19T03:07:25;95646.97;;;18.12
61595;BMP280;47397;48.194;11.632;2023-06-19T03:08:25;95650.47;;;18.11
61595;BMP280;47397;48.194;11.632;2023-06-19T03:09:27;95647.53;;;18.18
61595;BMP280;47397;48.194;11.632;2023-06-19T03:10:27;95655.78;;;18.08
61595;BMP280;47397;48.194;11.632;2023-06-19T03:11:28;95648.16;;;18.07
61595;BMP280;47397;48.194;11.632;2023-06-19T03:12:28;95654.13;;;18.07
61595;BMP280;47397;48.194;11.632;2023-06-19T03:13:28;95650.56;;;18.10
61595;BMP280;47397;48.194;11.632;2023-06-19T03:14:29;95658.38;;;18.08
61595;BMP280;47397;48.194;11.632;2023-06-19T03:15:29;95651.38;;;18.10
61595;BMP280;47397;48.194;11.632;2023-06-19T03:16:30;95664.22;;;17.96
61595;BMP280;47397;48.194;11.632;2023-06-19T03:17:30;95656.72;;;18.07
61595;BMP280;47397;48.194;11.632;2023-06-19T03:18:30;95655.78;;;18.08
61595;BMP280;47397;48.194;11.632;2023-06-19T03:19:31;95659.63;;;18.01
61595;BMP280;47397;48.194;11.632;2023-06-19T03:20:31;95666.78;;;17.96
61595;BMP280;47397;48.194;11.632;2023-06-19T03:21:32;95668.69;;;17.93
61595;BMP280;47397;48.194;11.632;2023-06-19T03:22:32;95669.91;;;18.01
61595;BMP280;47397;48.194;11.632;2023-06-19T03:23:32;95666.06;;;18.08
61595;BMP280;47397;48.194;11.632;2023-06-19T03:24:34;95666.91;;;18.09
61595;BMP280;47397;48.194;11.632;2023-06-19T03:25:35;95668.53;;;17.80
61595;BMP280;47397;48.194;11.632;2023-06-19T03:26:35;95666.66;;;17.52
61595;BMP280;47397;48.194;11.632;2023-06-19T03:27:35;95672.63;;;17.53
61595;BMP280;47397;48.194;11.632;2023-06-19T03:28:36;95673.47;;;17.69
61595;BMP280;47397;48.194;11.632;2023-06-19T03:29:36;95673.59;;;17.81
61595;BMP280;47397;48.194;11.632;2023-06-19T03:30:37;95674.59;;;17.95
61595;BMP280;47397;48.194;11.632;2023-06-19T03:31:37;95680.03;;;18.04
61595;BMP280;47397;48.194;11.632;2023-06-19T03:32:38;95678.38;;;18.03
61595;BMP280;47397;48.194;11.632;2023-06-19T03:33:38;95681.59;;;18.07
61595;BMP280;47397;48.194;11.632;2023-06-19T03:34:39;95685.19;;;18.04
61595;BMP280;47397;48.194;11.632;2023-06-19T03:35:39;95682.34;;;18.09
61595;BMP280;47397;48.194;11.632;2023-06-19T03:36:40;95683.66;;;18.16
61595;BMP280;47397;48.194;11.632;2023-06-19T03:37:40;95677.38;;;18.06
61595;BMP280;47397;48.194;11.632;2023-06-19T03:38:40;95677.47;;;18.04
61595;BMP280;47397;48.194;11.632;2023-06-19T03:39:42;95684.09;;;18.08
61595;BMP280;47397;48.194;11.632;2023-06-19T03:40:43;95686.84;;;18.05
61595;BMP280;47397;48.194;11.632;2023-06-19T03:41:43;95684.97;;;17.93
61595;BMP280;47397;48.194;11.632;2023-06-19T03:42:43;95683.88;;;17.97
61595;BMP280;47397;48.194;11.632;2023-06-19T03:43:44;95684.13;;;17.93
61595;BMP280;47397;48.194;11.632;2023-06-19T03:44:44;95695.47;;;18.04
61595;BMP280;47397;48.194;11.632;2023-06-19T03:45:45;95690.31;;;18.04
61595;BMP280;47397;48.194;11.632;2023-06-19T03:46:45;95692.50;;;17.96
61595;BMP280;47397;48.194;11.632;2023-06-19T03:47:46;95695.28;;;18.07
61595;BMP280;47397;48.194;11.632;2023-06-19T03:48:46;95703.19;;;18.04
61595;BMP280;47397;48.194;11.632;2023-06-19T03:49:47;95702.75;;;18.12
61595;BMP280;47397;48.194;11.632;2023-06-19T03:50:47;95695.91;;;17.97
61595;BMP280;47397;48.194;11.632;2023-06-19T03:51:48;95698.94;;;18.03
61595;BMP280;47397;48.194;11.632;2023-06-19T03:52:48;95706.19;;;17.97
61595;BMP280;47397;48.194;11.632;2023-06-19T03:53:49;95700.97;;;17.98
61595;BMP280;47397;48.194;11.632;2023-06-19T03:54:50;95698.22;;;18.01
61595;BMP280;47397;48.194;11.632;2023-06-19T03:55:51;95707.94;;;17.96
61595;BMP280;47397;48.194;11.632;2023-06-19T03:56:51;95703.81;;;18.08
61595;BMP280;47397;48.194;11.632;2023-06-19T03:57:52;95712.03;;;18.15
61595;BMP280;47397;48.194;11.632;2023-06-19T03:58:52;95709.66;;;17.96
61595;BMP280;47397;48.194;11.632;2023-06-19T03:59:52;95711.41;;;17.95
61595;BMP280;47397;48.194;11.632;2023-06-19T04:00:53;95720.03;;;17.94
61595;BMP280;47397;48.194;11.632;2023-06-19T04:01:53;95714.28;;;18.05
61595;BMP280;47397;48.194;11.632;2023-06-19T04:02:54;95715.56;;;17.98
61595;BMP280;47397;48.194;11.632;2023-06-19T04:03:54;95716.81;;;17.91
61595;BMP280;47397;48.194;11.632;2023-06-19T04:04:54;95719.69;;;18.00
61595;BMP280;47397;48.194;11.632;2023-06-19T04:05:55;95718.97;;;17.98
61595;BMP280;47397;48.194;11.632;2023-06-19T04:06:55;95715.88;;;18.07
61595;BMP280;47397;48.194;11.632;2023-06-19T04:07:56;95711.97;;;18.00
61595;BMP280;47397;48.194;11.632;2023-06-19T04:08:56;95720.00;;;18.10
61595;BMP280;47397;48.194;11.632;2023-06-19T04:09:58;95716.50;;;18.11
61595;BMP280;47397;48.194;11.632;2023-06-19T04:10:59;95722.31;;;18.15
61595;BMP280;47397;48.194;11.632;2023-06-19T04:11:59;95715.78;;;18.09
61595;BMP280;47397;48.194;11.632;2023-06-19T04:13:00;95717.97;;;18.01
61595;BMP280;47397;48.194;11.632;2023-06-19T04:14:00;95720.66;;;18.13
61595;BMP280;47397;48.194;11.632;2023-06-19T04:15:00;95723.59;;;18.07
61595;BMP280;47397;48.194;11.632;2023-06-19T04:16:01;95720.84;;;18.10
61595;BMP280;47397;48.194;11.632;2023-06-19T04:17:01;95724.16;;;18.12
61595;BMP280;47397;48.194;11.632;2023-06-19T04:18:02;95725.53;;;18.18
61595;BMP280;47397;48.194;11.632;2023-06-19T04:19:02;95727.16;;;18.05
61595;BMP280;47397;48.194;11.632;2023-06-19T04:20:03;95723.31;;;18.12
61595;BMP280;47397;48.194;11.632;2023-06-19T04:21:04;95727.97;;;18.05
61595;BMP280;47397;48.194;11.632;2023-06-19T04:22:05;95733.28;;;18.02
61595;BMP280;47397;48.194;11.632;2023-06-19T04:23:05;95730.56;;;18.05
61595;BMP280;47397;48.194;11.632;2023-06-19T04:24:06;95736.59;;;18.04
61595;BMP280;47397;48.194;11.632;2023-06-19T04:25:08;95738.25;;;18.05
61595;BMP280;47397;48.194;11.632;2023-06-19T04:26:09;95732.94;;;18.08
61595;BMP280;47397;48.194;11.632;2023-06-19T04:27:09;95737.19;;;18.09
61595;BMP280;47397;48.194;11.632;2023-06-19T04:28:09;95739.75;;;18.09
61595;BMP280;47397;48.194;11.632;2023-06-19T04:29:10;95740.28;;;18.00
61595;BMP280;47397;48.194;11.632;2023-06-19T04:30:11;95739.84;;;18.08
61595;BMP280;47397;48.194;11.632;2023-06-19T04:31:12;95745.81;;;18.08
61595;BMP280;47397;48.194;11.632;2023-06-19T04:32:12;95743.97;;;18.10
61595;BMP280;47397;48.194;11.632;2023-06-19T04:33:12;95750.38;;;18.03
61595;BMP280;47397;48.194;11.632;2023-06-19T04:34:15;95746.16;;;18.02
61595;BMP280;47397;48.194;11.632;2023-06-19T04:35:15;95748.88;;;18.15
61595;BMP280;47397;48.194;11.632;2023-06-19T04:36:16;95747.63;;;18.06
61595;BMP280;47397;48.194;11.632;2023-06-19T04:37:17;95750.56;;;18.00
61595;BMP280;47397;48.194;11.632;2023-06-19T04:38:17;95752.53;;;18.11
61595;BMP280;47397;48.194;11.632;2023-06-19T04:39:17;95751.34;;;18.17
61595;BMP280;47397;48.194;11.632;2023-06-19T04:40:19;95754.00;;;18.15
61595;BMP280;47397;48.194;11.632;2023-06-19T04:41:20;95752.44;;;18.12
61595;BMP280;47397;48.194;11.632;2023-06-19T04:42:21;95756.41;;;18.18
61595;BMP280;47397;48.194;11.632;2023-06-19T04:43:21;95748.03;;;18.15
61595;BMP280;47397;48.194;11.632;2023-06-19T04:44:21;95752.84;;;18.21
61595;BMP280;47397;48.194;11.632;2023-06-19T04:45:22;95755.44;;;18.05
61595;BMP280;47397;48.194;11.632;2023-06-19T04:46:22;95759.34;;;17.96
61595;BMP280;47397;48.194;11.632;2023-06-19T04:47:23;95761.00;;;17.97
61595;BMP280;47397;48.194;11.632;2023-06-19T04:48:23;95761.75;;;17.99
61595;BMP280;47397;48.194;11.632;2023-06-19T04:49:24;95761.69;;;18.01
61595;BMP280;47397;48.194;11.632;2023-06-19T04:50:24;95766.06;;;17.99
61595;BMP280;47397;48.194;11.632;2023-06-19T04:51:25;95771.69;;;18.05
61595;BMP280;47397;48.194;11.632;2023-06-19T04:52:25;95781.16;;;18.05
61595;BMP280;47397;48.194;11.632;2023-06-19T04:53:26;95786.22;;;18.06
61595;BMP280;47397;48.194;11.632;2023-06-19T04:54:26;95783.31;;;18.12
61595;BMP280;47397;48.194;11.632;2023-06-19T04:55:28;95779.91;;;18.12
61595;BMP280;47397;48.194;11.632;2023-06-19T04:56:28;95785.72;;;18.16
61595;BMP280;47397;48.194;11.632;2023-06-19T04:57:29;95786.97;;;18.08
61595;BMP280;47397;48.194;11.632;2023-06-19T04:58:29;95784.06;;;18.15
61595;BMP280;47397;48.194;11.632;2023-06-19T04:59:30;95782.56;;;18.10
61595;BMP280;47397;48.194;11.632;2023-06-19T05:00:30;95784.31;;;18.10
61595;BMP280;47397;48.194;11.632;2023-06-19T05:01:30;95789.53;;;18.08
61595;BMP280;47397;48.194;11.632;2023-06-19T05:02:31;95790.03;;;18.15
61595;BMP280;47397;48.194;11.632;2023-06-19T05:03:31;95786.13;;;18.24
61595;BMP280;47397;48.194;11.632;2023-06-19T05:04:32;95795.91;;;18.33
61595;BMP280;47397;48.194;11.632;2023-06-19T05:05:32;95784.31;;;18.26
61595;BMP280;47397;48.194;11.632;2023-06-19T05:06:33;95791.28;;;18.08
61595;BMP280;47397;48.194;11.632;2023-06-19T05:07:33;95790.78;;;18.01
61595;BMP280;47397;48.194;11.632;2023-06-19T05:08:33;95795.75;;;18.04
61595;BMP280;47397;48.194;11.632;2023-06-19T05:09:34;95789.19;;;18.15
61595;BMP280;47397;48.194;11.632;2023-06-19T05:10:36;95799.41;;;18.16
61595;BMP280;47397;48.194;11.632;2023-06-19T05:11:36;95789.19;;;18.15
61595;BMP280;47397;48.194;11.632;2023-06-19T05:12:37;95788.63;;;18.09
61595;BMP280;47397;48.194;11.632;2023-06-19T05:13:37;95797.00;;;18.13
61595;BMP280;47397;48.194;11.632;2023-06-19T05:14:37;95791.50;;;18.19
61595;BMP280;47397;48.194;11.632;2023-06-19T05:15:38;95788.44;;;18.12
61595;BMP280;47397;48.194;11.632;2023-06-19T05:16:38;95789.63;;;18.23
61595;BMP280;47397;48.194;11.632;2023-06-19T05:17:39;95793.09;;;18.22
61595;BMP280;47397;48.194;11.632;2023-06-19T05:18:39;95793.09;;;18.22
61595;BMP280;47397;48.194;11.632;2023-06-19T05:19:39;95783.97;;;18.32
61595;BMP280;47397;48.194;11.632;2023-06-19T05:20:40;95784.69;;;18.34
61595;BMP280;47397;48.194;11.632;2023-06-19T05:21:40;95794.47;;;18.43
61595;BMP280;47397;48.194;11.632;2023-06-19T05:22:41;95796.13;;;18.44
61595;BMP280;47397;48.194;11.632;2023-06-19T05:23:41;95791.16;;;18.41
61595;BMP280;47397;48.194;11.632;2023-06-19T05:24:41;95794.47;;;18.43
61595;BMP280;47397;48.194;11.632;2023-06-19T05:25:43;95798.00;;;18.56
61595;BMP280;47397;48.194;11.632;2023-06-19T05:26:44;95793.75;;;18.55
61595;BMP280;47397;48.194;11.632;2023-06-19T05:27:44;95795.78;;;18.66
61595;BMP280;47397;48.194;11.632;2023-06-19T05:28:45;95799.91;;;18.68
61595;BMP280;47397;48.194;11.632;2023-06-19T05:29:45;95795.91;;;18.79
61595;BMP280;47397;48.194;11.632;2023-06-19T05:30:46;95798.66;;;18.90
61595;BMP280;47397;48.194;11.632;2023-06-19T05:31:46;95792.53;;;19.07
61595;BMP280;47397;48.194;11.632;2023-06-19T05:32:46;95800.66;;;19.15
61595;BMP280;47397;48.194;11.632;2023-06-19T05:33:47;95795.94;;;19.21
61595;BMP280;47397;48.194;11.632;2023-06-19T05:34:47;95794.13;;;19.38
61595;BMP280;47397;48.194;11.632;2023-06-19T05:35:47;95808.31;;;19.45
61595;BMP280;47397;48.194;11.632;2023-06-19T05:36:49;95799.56;;;19.47
61595;BMP280;47397;48.194;11.632;2023-06-19T05:37:49;95795.88;;;19.51
61595;BMP280;47397;48.194;11.632;2023-06-19T05:38:49;95810.25;;;19.55
61595;BMP280;47397;48.194;11.632;2023-06-19T05:39:50;95809.34;;;19.56
61595;BMP280;47397;48.194;11.632;2023-06-19T05:40:52;95813.00;;;19.66
61595;BMP280;47397;48.194;11.632;2023-06-19T05:41:52;95814.84;;;19.79
61595;BMP280;47397;48.194;11.632;2023-06-19T05:42:52;95815.88;;;19.76
61595;BMP280;47397;48.194;11.632;2023-06-19T05:43:53;95809.22;;;19.86
61595;BMP280;47397;48.194;11.632;2023-06-19T05:44:53;95808.28;;;19.87
61595;BMP280;47397;48.194;11.632;2023-06-19T05:45:54;95815.19;;;19.87
61595;BMP280;47397;48.194;11.632;2023-06-19T05:46:54;95815.50;;;19.82